createdAt,value
2022-10-25T00:02:30.808Z,12.90
2022-10-25T00:05:00.473Z,12.40
2022-10-25T00:07:27.757Z,11.55
2022-10-25T00:09:55.210Z,10.77
2022-10-25T00:12:29.561Z,11.43
2022-10-25T00:15:03.512Z,11.00
2022-10-25T00:17:33.605Z,11.23
2022-10-25T00:20:05.927Z,10.30
2022-10-25T00:22:35.456Z,10.13
2022-10-25T00:25:06.481Z,9.50
2022-10-25T00:27:33.886Z,11.10
2022-10-25T00:30:01.521Z,11.70
2022-10-25T00:32:35.595Z,10.63
2022-10-25T00:35:06.193Z,11.20
2022-10-25T00:37:33.344Z,10.88
2022-10-25T00:40:00.667Z,10.30
2022-10-25T00:42:27.730Z,10.52
2022-10-25T00:45:12.704Z,10.48
2022-10-25T00:47:45.966Z,10.68
2022-10-25T00:50:22.709Z,10.30
2022-10-25T00:52:56.105Z,9.60
2022-10-25T00:55:28.644Z,9.05
2022-10-25T00:58:08.042Z,9.75
2022-10-25T01:00:41.233Z,9.52
2022-10-25T01:03:13.730Z,10.25
2022-10-25T01:05:45.505Z,8.43
2022-10-25T01:08:13.019Z,11.00
2022-10-25T01:10:42.796Z,9.77
2022-10-25T01:13:10.045Z,9.05
2022-10-25T01:16:10.733Z,11.38
2022-10-25T01:18:48.371Z,8.90
2022-10-25T01:21:44.392Z,9.90
2022-10-25T01:24:29.573Z,10.10
2022-10-25T01:27:24.844Z,10.05
2022-10-25T01:30:12.752Z,10.10
2022-10-25T01:33:00.695Z,9.82
2022-10-25T01:35:50.087Z,10.77
2022-10-25T01:38:44.162Z,9.95
2022-10-25T01:41:50.158Z,9.98
2022-10-25T01:44:32.269Z,10.00
2022-10-25T01:47:03.321Z,10.43
2022-10-25T01:49:39.709Z,10.55
2022-10-25T01:52:08.996Z,10.73
2022-10-25T01:54:38.782Z,10.63
2022-10-25T01:57:33.081Z,11.25
2022-10-25T02:00:09.498Z,11.07
2022-10-25T02:02:50.450Z,11.25
2022-10-25T02:05:23.743Z,11.85
2022-10-25T02:07:55.854Z,11.70
2022-10-25T02:10:41.136Z,11.45
2022-10-25T02:13:27.036Z,11.68
2022-10-25T02:16:07.218Z,12.93
2022-10-25T02:18:44.336Z,12.27
2022-10-25T02:21:13.764Z,12.45
2022-10-25T02:23:41.995Z,12.85
2022-10-25T02:26:15.325Z,10.63
2022-10-25T02:28:42.749Z,10.98
2022-10-25T02:31:17.509Z,11.32
2022-10-25T02:33:52.529Z,11.43
2022-10-25T02:36:28.534Z,10.82
2022-10-25T02:38:57.435Z,11.40
2022-10-25T02:41:24.857Z,11.13
2022-10-25T02:43:52.015Z,11.40
2022-10-25T02:46:21.716Z,11.20
2022-10-25T02:48:52.169Z,11.73
2022-10-25T02:51:23.004Z,12.18
2022-10-25T02:53:50.059Z,11.63
2022-10-25T02:56:23.253Z,12.13
2022-10-25T02:58:58.634Z,12.88
2022-10-25T03:01:32.651Z,11.52
2022-10-25T03:04:02.056Z,13.27
2022-10-25T03:06:31.800Z,13.00
2022-10-25T03:08:58.843Z,13.45
2022-10-25T03:11:31.046Z,13.57
2022-10-25T03:13:58.061Z,14.23
2022-10-25T03:16:32.473Z,11.80
2022-10-25T03:19:00.107Z,11.73
2022-10-25T03:21:27.478Z,12.93
2022-10-25T03:23:59.445Z,13.07
2022-10-25T03:26:31.642Z,12.27
2022-10-25T03:29:03.626Z,13.40
2022-10-25T03:31:31.031Z,11.75
2022-10-25T03:34:00.414Z,14.43
2022-10-25T03:36:29.998Z,14.27
2022-10-25T03:38:59.430Z,14.50
2022-10-25T03:41:28.941Z,13.13
2022-10-25T03:43:58.315Z,14.32
2022-10-25T03:46:25.766Z,13.10
2022-10-25T03:48:55.381Z,13.52
2022-10-25T03:51:25.242Z,14.15
2022-10-25T03:53:57.127Z,13.88
2022-10-25T03:56:26.739Z,15.52
2022-10-25T03:58:55.938Z,14.55
2022-10-25T04:01:23.291Z,15.43
2022-10-25T04:03:52.660Z,15.43
2022-10-25T04:06:19.994Z,15.88
2022-10-25T04:08:47.037Z,17.63
2022-10-25T04:11:21.337Z,15.98
2022-10-25T04:13:50.806Z,17.10
2022-10-25T04:16:23.386Z,19.02
2022-10-25T04:18:53.323Z,19.42
2022-10-25T04:21:21.373Z,22.20
2022-10-25T04:23:52.289Z,21.55
2022-10-25T04:26:22.113Z,22.52
2022-10-25T04:28:56.575Z,20.63
2022-10-25T04:31:24.529Z,21.40
2022-10-25T04:33:52.892Z,22.77
2022-10-25T04:36:20.966Z,21.70
2022-10-25T04:38:56.068Z,22.10
2022-10-25T04:41:23.445Z,22.95
2022-10-25T04:43:58.086Z,21.92
2022-10-25T04:46:28.346Z,21.02
2022-10-25T04:48:58.094Z,21.70
2022-10-25T04:51:27.809Z,20.45
2022-10-25T04:53:59.337Z,19.35
2022-10-25T04:56:32.011Z,20.45
2022-10-25T04:59:01.147Z,21.17
2022-10-25T05:01:30.902Z,22.10
2022-10-25T05:04:00.637Z,21.10
2022-10-25T05:06:27.982Z,21.08
2022-10-25T05:08:55.762Z,20.65
2022-10-25T05:11:28.396Z,20.25
2022-10-25T05:13:55.430Z,20.20
2022-10-25T05:16:25.881Z,18.23
2022-10-25T05:18:56.289Z,18.77
2022-10-25T05:21:31.585Z,17.90
2022-10-25T05:24:02.524Z,17.95
2022-10-25T05:26:30.893Z,19.30
2022-10-25T05:29:00.282Z,18.67
2022-10-25T05:31:32.189Z,23.98
2022-10-25T05:36:33.313Z,40.78
2022-10-25T05:39:01.207Z,40.47
2022-10-25T05:41:33.402Z,46.03
2022-10-25T05:44:08.813Z,47.25
2022-10-25T05:46:38.281Z,47.13
2022-10-25T05:49:11.417Z,44.83
2022-10-25T05:51:39.098Z,42.22
2022-10-25T05:54:16.081Z,42.58
2022-10-25T05:56:46.033Z,45.15
2022-10-25T05:59:14.826Z,47.88
2022-10-25T06:01:44.877Z,67.38
2022-10-25T06:04:15.680Z,69.10
2022-10-25T06:06:45.623Z,69.70
2022-10-25T06:09:13.562Z,64.80
2022-10-25T06:11:45.907Z,57.70
2022-10-25T06:14:17.976Z,52.65
2022-10-25T06:19:20.163Z,37.30
2022-10-25T06:21:49.927Z,40.08
2022-10-25T06:24:17.617Z,42.95
2022-10-25T06:26:44.814Z,40.17
2022-10-25T06:29:11.848Z,38.65
2022-10-25T06:31:39.167Z,35.67
2022-10-25T06:34:06.191Z,35.58
2022-10-25T06:36:35.748Z,35.78
2022-10-25T06:39:10.042Z,36.10
2022-10-25T06:41:37.879Z,32.50
2022-10-25T06:44:10.769Z,25.42
2022-10-25T06:49:31.945Z,21.20
2022-10-25T06:52:06.478Z,19.38
2022-10-25T06:54:33.831Z,19.45
2022-10-25T06:57:05.387Z,18.52
2022-10-25T06:59:37.133Z,17.02
2022-10-25T07:02:07.105Z,16.88
2022-10-25T07:04:36.358Z,16.63
2022-10-25T07:07:03.658Z,17.33
2022-10-25T07:09:30.728Z,16.23
2022-10-25T07:12:02.307Z,16.05
2022-10-25T07:14:31.418Z,16.87
2022-10-25T07:17:00.918Z,15.85
2022-10-25T07:19:30.184Z,16.10
2022-10-25T07:21:59.557Z,16.10
2022-10-25T07:24:29.132Z,15.93
2022-10-25T07:26:56.519Z,16.00
2022-10-25T07:29:26.094Z,15.68
2022-10-25T07:31:58.434Z,15.52
2022-10-25T07:34:30.141Z,15.45
2022-10-25T07:36:57.481Z,13.68
2022-10-25T07:39:24.620Z,15.18
2022-10-25T07:41:54.362Z,13.38
2022-10-25T07:44:25.072Z,13.73
2022-10-25T07:46:57.175Z,12.52
2022-10-25T07:51:54.020Z,12.38
2022-10-25T07:54:23.427Z,12.57
2022-10-25T07:56:55.673Z,12.20
2022-10-25T07:59:25.079Z,11.85
2022-10-25T08:01:52.698Z,12.02
2022-10-25T08:04:22.026Z,12.70
2022-10-25T08:06:54.264Z,11.57
2022-10-25T08:09:37.278Z,11.40
2022-10-25T08:12:05.573Z,10.85
2022-10-25T08:14:38.144Z,11.65
2022-10-25T08:17:08.747Z,10.65
2022-10-25T08:19:40.614Z,10.63
2022-10-25T08:22:10.965Z,9.90
2022-10-25T08:24:42.977Z,9.18
2022-10-25T08:27:12.279Z,9.57
2022-10-25T08:29:44.573Z,9.40
2022-10-25T08:32:14.714Z,9.32
2022-10-25T08:34:41.896Z,8.57
2022-10-25T08:37:12.650Z,8.48
2022-10-25T08:39:42.009Z,9.45
2022-10-25T08:42:21.035Z,8.05
2022-10-25T08:45:08.584Z,8.48
2022-10-25T08:47:42.641Z,8.35
2022-10-25T08:50:16.565Z,8.45
2022-10-25T08:52:53.690Z,8.02
2022-10-25T08:55:31.945Z,8.27
2022-10-25T08:58:03.973Z,6.70
2022-10-25T09:00:39.399Z,7.68
2022-10-25T09:03:24.753Z,6.05
2022-10-25T09:06:02.787Z,6.45
2022-10-25T09:08:52.410Z,6.07
2022-10-25T09:11:23.926Z,5.95
2022-10-25T09:14:14.625Z,8.75
2022-10-25T09:16:57.198Z,5.57
2022-10-25T09:20:16.246Z,5.90
2022-10-25T09:22:48.386Z,7.38
2022-10-25T09:25:33.515Z,5.63
2022-10-25T09:30:37.724Z,4.30
2022-10-25T09:33:11.750Z,5.22
2022-10-25T09:35:49.466Z,4.45
2022-10-25T09:38:28.766Z,3.70
2022-10-25T09:41:11.802Z,5.32
2022-10-25T09:43:48.456Z,4.88
2022-10-25T09:46:25.369Z,5.18
2022-10-25T09:49:04.842Z,5.40
2022-10-25T09:51:35.991Z,5.30
2022-10-25T09:54:19.030Z,5.68
2022-10-25T09:56:48.979Z,4.63
2022-10-25T09:59:27.765Z,4.65
2022-10-25T10:02:00.107Z,5.25
2022-10-25T10:04:41.639Z,5.13
2022-10-25T10:07:18.112Z,6.05
2022-10-25T10:09:48.642Z,4.35
2022-10-25T10:12:25.702Z,4.43
2022-10-25T10:14:58.958Z,4.47
2022-10-25T10:17:30.666Z,5.03
2022-10-25T10:20:15.592Z,4.63
2022-10-25T10:23:00.003Z,4.47
2022-10-25T10:25:32.546Z,3.90
2022-10-25T10:28:02.114Z,4.78
2022-10-25T10:30:31.865Z,5.00
2022-10-25T10:33:03.122Z,4.55
2022-10-25T10:35:37.036Z,4.85
2022-10-25T10:40:47.887Z,6.15
2022-10-25T10:43:34.243Z,6.20
2022-10-25T10:46:08.243Z,4.35
2022-10-25T10:48:45.851Z,6.75
2022-10-25T10:54:31.970Z,6.38
2022-10-25T10:57:06.514Z,5.35
2022-10-25T11:00:04.013Z,6.50
2022-10-25T11:02:41.485Z,4.47
2022-10-25T11:05:32.523Z,3.97
2022-10-25T11:08:06.927Z,4.05
2022-10-25T11:10:38.763Z,4.85
2022-10-25T11:13:18.690Z,4.95
2022-10-25T11:18:45.822Z,3.90
2022-10-25T11:21:27.526Z,5.32
2022-10-25T11:24:12.254Z,4.72
2022-10-25T11:27:07.503Z,5.65
2022-10-25T11:29:49.306Z,5.50
2022-10-25T11:32:17.201Z,4.88
2022-10-25T11:35:09.950Z,5.22
2022-10-25T11:37:48.040Z,4.35
2022-10-25T11:40:21.790Z,4.05
2022-10-25T11:43:01.614Z,4.60
2022-10-25T11:45:48.465Z,5.25
2022-10-25T11:48:47.830Z,4.63
2022-10-25T11:51:42.154Z,5.15
2022-10-25T11:54:25.758Z,4.15
2022-10-25T11:57:04.350Z,4.57
2022-10-25T12:00:19.634Z,4.20
2022-10-25T12:03:14.350Z,3.63
2022-10-25T12:05:51.450Z,3.20
2022-10-25T12:08:55.990Z,3.25
2022-10-25T12:11:31.170Z,2.97
2022-10-25T12:14:06.782Z,4.15
2022-10-25T12:16:36.370Z,3.47
2022-10-25T12:19:19.537Z,3.58
2022-10-25T12:22:01.689Z,2.70
2022-10-25T12:24:37.795Z,2.67
2022-10-25T12:27:13.264Z,2.75
2022-10-25T12:29:46.657Z,3.20
2022-10-25T12:32:32.251Z,2.80
2022-10-25T12:35:01.546Z,3.40
2022-10-25T12:37:39.641Z,3.35
2022-10-25T12:40:15.791Z,3.22
2022-10-25T12:42:51.239Z,4.18
2022-10-25T12:45:45.837Z,2.88
2022-10-25T12:48:48.027Z,3.25
2022-10-25T12:51:48.803Z,3.28
2022-10-25T12:54:40.409Z,2.78
2022-10-25T12:57:30.906Z,4.55
2022-10-25T13:03:10.237Z,3.42
2022-10-25T13:05:56.829Z,2.80
2022-10-25T13:08:26.996Z,3.38
2022-10-25T13:11:03.845Z,4.28
2022-10-25T13:13:53.889Z,3.88
2022-10-25T13:16:33.917Z,3.38
2022-10-25T13:19:25.951Z,3.17
2022-10-25T13:22:12.237Z,2.03
2022-10-25T13:24:48.232Z,2.17
2022-10-25T13:27:19.760Z,2.10
2022-10-25T13:30:07.326Z,1.67
2022-10-25T13:32:42.287Z,2.13
2022-10-25T13:35:22.058Z,1.60
2022-10-25T13:38:06.110Z,2.85
2022-10-25T13:40:38.230Z,2.75
2022-10-25T13:43:22.430Z,2.65
2022-10-25T13:45:58.093Z,1.75
2022-10-25T13:48:32.698Z,2.75
2022-10-25T13:51:10.779Z,1.73
2022-10-25T13:53:50.653Z,2.10
2022-10-25T13:56:34.079Z,2.13
2022-10-25T13:59:04.871Z,2.05
2022-10-25T14:01:54.471Z,2.20
2022-10-25T14:04:35.223Z,2.75
2022-10-25T14:07:44.817Z,4.47
2022-10-25T14:10:26.523Z,2.42
2022-10-25T14:12:58.712Z,2.20
2022-10-25T14:15:45.570Z,2.30
2022-10-25T14:18:24.758Z,2.05
2022-10-25T14:21:01.933Z,2.40
2022-10-25T14:23:36.593Z,2.47
2022-10-25T14:26:14.234Z,2.55
2022-10-25T14:28:43.786Z,2.60
2022-10-25T14:31:21.181Z,3.22
2022-10-25T14:33:52.167Z,2.38
2022-10-25T14:36:32.739Z,3.40
2022-10-25T14:41:32.293Z,3.10
2022-10-25T14:44:30.230Z,3.47
2022-10-25T14:47:04.742Z,3.15
2022-10-25T14:49:33.866Z,3.70
2022-10-25T14:52:06.503Z,3.05
2022-10-25T14:54:37.159Z,4.07
2022-10-25T14:57:13.908Z,4.13
2022-10-25T14:59:49.241Z,3.13
2022-10-25T15:02:30.220Z,3.10
2022-10-25T15:05:00.117Z,3.47
2022-10-25T15:07:31.903Z,3.90
2022-10-25T15:12:32.869Z,3.92
2022-10-25T15:15:33.575Z,3.60
2022-10-25T15:18:00.901Z,3.67
2022-10-25T15:20:38.698Z,4.50
2022-10-25T15:23:18.979Z,3.72
2022-10-25T15:25:48.541Z,4.05
2022-10-25T15:28:20.073Z,3.50
2022-10-25T15:30:49.635Z,3.65
2022-10-25T15:33:30.829Z,3.42
2022-10-25T15:36:01.218Z,3.42
2022-10-25T15:39:06.805Z,3.28
2022-10-25T15:41:23.082Z,3.13
2022-10-25T15:43:56.496Z,4.95
2022-10-25T15:46:38.271Z,3.88
2022-10-25T15:49:08.259Z,3.50
2022-10-25T15:54:20.133Z,3.78
2022-10-25T15:56:47.997Z,3.22
2022-10-25T16:01:49.581Z,4.25
2022-10-25T16:04:22.238Z,4.68
2022-10-25T16:06:51.912Z,4.28
2022-10-25T16:09:19.231Z,4.53
2022-10-25T16:11:54.167Z,4.47
2022-10-25T16:14:26.137Z,5.97
2022-10-25T16:16:58.149Z,5.55
2022-10-25T16:19:31.670Z,5.10
2022-10-25T16:21:59.854Z,5.63
2022-10-25T16:24:27.259Z,5.35
2022-10-25T16:26:54.418Z,5.53
2022-10-25T16:29:26.223Z,5.18
2022-10-25T16:31:56.112Z,6.15
2022-10-25T16:34:23.325Z,6.47
2022-10-25T16:36:52.500Z,5.97
2022-10-25T16:39:22.289Z,7.90
2022-10-25T16:41:54.899Z,6.60
2022-10-25T16:44:24.744Z,6.35
2022-10-25T16:46:53.995Z,6.82
2022-10-25T16:49:25.988Z,7.70
2022-10-25T16:54:24.292Z,7.85
2022-10-25T16:56:53.771Z,7.28
2022-10-25T16:59:21.107Z,7.25
2022-10-25T17:01:54.265Z,7.38
2022-10-25T17:04:24.792Z,7.65
2022-10-25T17:06:54.058Z,7.75
2022-10-25T17:09:28.965Z,8.52
2022-10-25T17:11:56.110Z,7.22
2022-10-25T17:14:25.789Z,8.25
2022-10-25T17:17:02.301Z,8.98
2022-10-25T17:19:30.836Z,7.85
2022-10-25T17:22:00.027Z,8.45
2022-10-25T17:24:33.018Z,9.43
2022-10-25T17:27:00.114Z,8.88
2022-10-25T17:29:29.904Z,10.20
2022-10-25T17:31:57.069Z,10.85
2022-10-25T17:34:24.514Z,12.30
2022-10-25T17:36:56.158Z,11.98
2022-10-25T17:39:25.798Z,12.32
2022-10-25T17:41:59.863Z,12.32
2022-10-25T17:44:29.225Z,10.27
2022-10-25T17:47:03.065Z,10.07
2022-10-25T17:49:34.222Z,10.65
2022-10-25T17:52:01.361Z,10.50
2022-10-25T17:54:37.210Z,10.23
2022-10-25T17:57:05.851Z,10.63
2022-10-25T17:59:33.616Z,9.45
2022-10-25T18:02:00.824Z,10.05
2022-10-25T18:04:40.793Z,11.70
2022-10-25T18:07:15.213Z,10.68
2022-10-25T18:09:47.225Z,12.65
2022-10-25T18:12:14.234Z,10.88
2022-10-25T18:14:43.749Z,9.43
2022-10-25T18:17:13.023Z,7.43
2022-10-25T18:19:42.340Z,6.70
2022-10-25T18:22:14.202Z,7.40
2022-10-25T18:24:46.347Z,8.02
2022-10-25T18:27:18.234Z,7.18
2022-10-25T18:29:50.719Z,8.52
2022-10-25T18:32:17.813Z,9.20
2022-10-25T18:34:47.683Z,9.43
2022-10-25T18:37:16.982Z,7.60
2022-10-25T18:39:47.026Z,8.80
2022-10-25T18:42:16.402Z,8.27
2022-10-25T18:44:43.985Z,8.88
2022-10-25T18:47:11.059Z,8.52
2022-10-25T18:49:40.767Z,8.20
2022-10-25T18:52:12.748Z,7.78
2022-10-25T18:54:40.415Z,8.40
2022-10-25T18:57:07.718Z,6.80
2022-10-25T18:59:39.767Z,6.65
2022-10-25T19:02:11.887Z,7.47
2022-10-25T19:04:39.179Z,6.75
2022-10-25T19:07:06.240Z,6.25
2022-10-25T19:09:38.262Z,6.22
2022-10-25T19:12:10.075Z,6.00
2022-10-25T19:14:41.996Z,5.65
2022-10-25T19:17:11.546Z,6.32
2022-10-25T19:19:44.381Z,5.95
2022-10-25T19:22:16.328Z,5.13
2022-10-25T19:24:44.129Z,5.43
2022-10-25T19:27:15.035Z,5.57
2022-10-25T19:29:42.345Z,5.85
2022-10-25T19:32:11.840Z,4.68
2022-10-25T19:34:44.007Z,5.55
2022-10-25T19:39:44.747Z,4.68
2022-10-25T19:42:18.920Z,5.43
2022-10-25T19:44:49.470Z,4.82
2022-10-25T19:47:19.266Z,5.32
2022-10-25T19:49:53.858Z,5.75
2022-10-25T19:52:21.042Z,5.28
2022-10-25T19:54:48.572Z,4.75
2022-10-25T19:57:20.344Z,4.72
2022-10-25T19:59:47.702Z,5.07
2022-10-25T20:02:17.235Z,6.72
2022-10-25T20:04:44.611Z,8.48
2022-10-25T20:07:14.017Z,8.00
2022-10-25T20:09:41.695Z,5.78
2022-10-25T20:12:08.822Z,4.85
2022-10-25T20:14:40.867Z,5.68
2022-10-25T20:17:12.518Z,4.80
2022-10-25T20:19:46.663Z,4.32
2022-10-25T20:22:16.804Z,4.43
2022-10-25T20:24:48.907Z,4.35
2022-10-25T20:29:46.062Z,5.68
2022-10-25T20:32:17.639Z,7.00
2022-10-25T20:34:51.630Z,7.05
2022-10-25T20:37:19.198Z,5.47
2022-10-25T20:39:46.576Z,4.32
2022-10-25T20:42:13.667Z,4.32
2022-10-25T20:44:48.068Z,3.85
2022-10-25T20:47:18.185Z,5.22
2022-10-25T20:49:52.426Z,4.85
2022-10-25T20:52:22.065Z,4.70
2022-10-25T20:54:51.610Z,4.85
2022-10-25T20:57:21.171Z,5.10
2022-10-25T20:59:49.352Z,4.97
2022-10-25T21:02:18.595Z,4.82
2022-10-25T21:04:53.981Z,5.15
2022-10-25T21:07:26.653Z,5.10
2022-10-25T21:09:56.003Z,5.80
2022-10-25T21:12:23.162Z,6.28
2022-10-25T21:14:59.875Z,6.32
2022-10-25T21:17:29.113Z,6.22
2022-10-25T21:19:56.357Z,5.88
2022-10-25T21:22:28.506Z,5.88
2022-10-25T21:25:01.270Z,6.20
2022-10-25T21:27:35.170Z,5.85
2022-10-25T21:30:02.726Z,6.05
2022-10-25T21:32:33.906Z,5.88
2022-10-25T21:35:03.810Z,5.82
2022-10-25T21:37:30.937Z,6.85
2022-10-25T21:40:02.527Z,6.07
2022-10-25T21:42:35.373Z,5.95
2022-10-25T21:45:05.046Z,5.45
2022-10-25T21:47:37.613Z,6.57
2022-10-25T21:50:10.091Z,5.70
2022-10-25T21:52:39.433Z,5.90
2022-10-25T21:55:07.221Z,6.30
2022-10-25T21:57:34.319Z,6.88
2022-10-25T22:00:01.889Z,6.63
2022-10-25T22:02:40.034Z,7.05
2022-10-25T22:05:07.815Z,6.80
2022-10-25T22:07:35.006Z,7.05
2022-10-25T22:10:07.143Z,7.10
2022-10-25T22:12:36.621Z,7.75
2022-10-25T22:15:06.820Z,8.15
2022-10-25T22:17:36.863Z,8.65
2022-10-25T22:20:07.353Z,8.75
2022-10-25T22:22:34.565Z,9.25
2022-10-25T22:25:04.480Z,8.85
2022-10-25T22:27:31.774Z,9.55
2022-10-25T22:30:03.566Z,8.23
2022-10-25T22:32:33.068Z,9.05
2022-10-25T22:35:03.702Z,9.98
2022-10-25T22:37:35.110Z,8.70
2022-10-25T22:40:08.403Z,9.75
2022-10-25T22:42:37.709Z,10.02
2022-10-25T22:45:09.945Z,10.15
2022-10-25T22:47:36.964Z,10.95
2022-10-25T22:50:06.893Z,11.93
2022-10-25T22:52:39.331Z,12.00
2022-10-25T22:55:10.384Z,11.00
2022-10-25T22:57:39.767Z,9.85
2022-10-25T23:00:09.969Z,10.98
2022-10-25T23:02:39.485Z,10.45
2022-10-25T23:05:09.333Z,9.63
2022-10-25T23:07:38.637Z,9.30
2022-10-25T23:10:06.210Z,10.45
2022-10-25T23:12:38.114Z,10.25
2022-10-25T23:15:08.127Z,10.63
2022-10-25T23:17:37.801Z,11.00
2022-10-25T23:20:05.593Z,10.80
2022-10-25T23:22:32.590Z,10.23
2022-10-25T23:25:02.121Z,9.80
2022-10-25T23:27:31.393Z,10.50
2022-10-25T23:29:58.653Z,10.52
2022-10-25T23:32:28.047Z,11.68
2022-10-25T23:34:57.587Z,10.50
2022-10-25T23:37:29.273Z,10.88
2022-10-25T23:39:56.611Z,11.38
2022-10-25T23:42:28.015Z,11.25
2022-10-25T23:44:55.233Z,11.73
2022-10-25T23:47:26.733Z,11.13
2022-10-25T23:49:56.254Z,9.65
2022-10-25T23:52:24.013Z,11.00
2022-10-25T23:54:55.830Z,11.23
2022-10-25T23:57:25.593Z,9.43
2022-10-25T23:59:55.349Z,10.68
